sensor_id;sensor_type;location;lat;lon;timestamp;P1;durP1;ratioP1;P2;durP2;ratioP2
10957;SDS011;5531;42.570;23.676;2023-05-07T00:02:23;5.13;;;4.18;;
10957;SDS011;5531;42.570;23.676;2023-05-07T00:04:52;4.95;;;4.20;;
10957;SDS011;5531;42.570;23.676;2023-05-07T00:07:21;4.32;;;3.92;;
10957;SDS011;5531;42.570;23.676;2023-05-07T00:09:49;5.57;;;3.83;;
10957;SDS011;5531;42.570;23.676;2023-05-07T00:12:18;3.65;;;3.35;;
10957;SDS011;5531;42.570;23.676;2023-05-07T00:14:46;4.35;;;3.90;;
10957;SDS011;5531;42.570;23.676;2023-05-07T00:17:18;6.55;;;4.28;;
10957;SDS011;5531;42.570;23.676;2023-05-07T00:19:46;5.78;;;4.68;;
10957;SDS011;5531;42.570;23.676;2023-05-07T00:22:15;6.30;;;4.13;;
10957;SDS011;5531;42.570;23.676;2023-05-07T00:24:43;4.32;;;3.65;;
10957;SDS011;5531;42.570;23.676;2023-05-07T00:27:12;6.25;;;4.10;;
10957;SDS011;5531;42.570;23.676;2023-05-07T00:29:40;4.30;;;3.75;;
10957;SDS011;5531;42.570;23.676;2023-05-07T00:32:09;5.78;;;3.78;;
10957;SDS011;5531;42.570;23.676;2023-05-07T00:34:40;6.78;;;3.80;;
10957;SDS011;5531;42.570;23.676;2023-05-07T00:37:08;3.67;;;3.17;;
10957;SDS011;5531;42.570;23.676;2023-05-07T00:39:37;4.75;;;3.42;;
10957;SDS011;5531;42.570;23.676;2023-05-07T00:42:06;4.57;;;3.47;;
10957;SDS011;5531;42.570;23.676;2023-05-07T00:44:34;4.40;;;3.40;;
10957;SDS011;5531;42.570;23.676;2023-05-07T00:47:03;4.57;;;4.00;;
10957;SDS011;5531;42.570;23.676;2023-05-07T00:49:36;4.28;;;3.47;;
10957;SDS011;5531;42.570;23.676;2023-05-07T00:52:09;3.72;;;3.42;;
10957;SDS011;5531;42.570;23.676;2023-05-07T00:54:39;4.35;;;3.83;;
10957;SDS011;5531;42.570;23.676;2023-05-07T00:57:08;5.57;;;3.92;;
10957;SDS011;5531;42.570;23.676;2023-05-07T00:59:37;5.88;;;4.22;;
10957;SDS011;5531;42.570;23.676;2023-05-07T01:02:06;5.65;;;4.38;;
10957;SDS011;5531;42.570;23.676;2023-05-07T01:04:35;5.65;;;4.75;;
10957;SDS011;5531;42.570;23.676;2023-05-07T01:07:03;5.93;;;5.03;;
10957;SDS011;5531;42.570;23.676;2023-05-07T01:09:35;6.55;;;5.20;;
10957;SDS011;5531;42.570;23.676;2023-05-07T01:12:04;6.70;;;5.68;;
10957;SDS011;5531;42.570;23.676;2023-05-07T01:14:34;8.00;;;6.18;;
10957;SDS011;5531;42.570;23.676;2023-05-07T01:17:03;7.63;;;6.45;;
10957;SDS011;5531;42.570;23.676;2023-05-07T01:19:31;8.45;;;6.80;;
10957;SDS011;5531;42.570;23.676;2023-05-07T01:22:02;7.38;;;6.63;;
10957;SDS011;5531;42.570;23.676;2023-05-07T01:24:33;9.45;;;7.85;;
10957;SDS011;5531;42.570;23.676;2023-05-07T01:27:03;9.93;;;7.30;;
10957;SDS011;5531;42.570;23.676;2023-05-07T01:29:31;10.20;;;7.75;;
10957;SDS011;5531;42.570;23.676;2023-05-07T01:32:00;11.48;;;8.60;;
10957;SDS011;5531;42.570;23.676;2023-05-07T01:34:30;9.18;;;7.97;;
10957;SDS011;5531;42.570;23.676;2023-05-07T01:36:59;10.65;;;8.55;;
10957;SDS011;5531;42.570;23.676;2023-05-07T01:39:29;10.38;;;8.48;;
10957;SDS011;5531;42.570;23.676;2023-05-07T01:42:00;13.45;;;8.52;;
10957;SDS011;5531;42.570;23.676;2023-05-07T01:44:28;11.57;;;8.93;;
10957;SDS011;5531;42.570;23.676;2023-05-07T01:46:58;11.57;;;9.45;;
10957;SDS011;5531;42.570;23.676;2023-05-07T01:49:26;13.32;;;9.50;;
10957;SDS011;5531;42.570;23.676;2023-05-07T01:51:55;12.50;;;9.60;;
10957;SDS011;5531;42.570;23.676;2023-05-07T01:54:25;11.80;;;9.57;;
10957;SDS011;5531;42.570;23.676;2023-05-07T01:56:54;12.65;;;10.43;;
10957;SDS011;5531;42.570;23.676;2023-05-07T01:59:26;13.10;;;9.43;;
10957;SDS011;5531;42.570;23.676;2023-05-07T02:01:54;11.98;;;9.60;;
10957;SDS011;5531;42.570;23.676;2023-05-07T02:04:23;12.13;;;9.57;;
10957;SDS011;5531;42.570;23.676;2023-05-07T02:06:51;13.70;;;9.88;;
10957;SDS011;5531;42.570;23.676;2023-05-07T02:09:21;13.25;;;10.13;;
10957;SDS011;5531;42.570;23.676;2023-05-07T02:11:49;13.00;;;10.18;;
10957;SDS011;5531;42.570;23.676;2023-05-07T02:14:18;14.73;;;10.20;;
10957;SDS011;5531;42.570;23.676;2023-05-07T02:16:49;12.25;;;9.40;;
10957;SDS011;5531;42.570;23.676;2023-05-07T02:19:17;12.13;;;10.10;;
10957;SDS011;5531;42.570;23.676;2023-05-07T02:21:46;11.85;;;9.48;;
10957;SDS011;5531;42.570;23.676;2023-05-07T02:24:15;12.32;;;10.45;;
10957;SDS011;5531;42.570;23.676;2023-05-07T02:26:44;10.90;;;9.10;;
10957;SDS011;5531;42.570;23.676;2023-05-07T02:29:12;13.35;;;10.25;;
10957;SDS011;5531;42.570;23.676;2023-05-07T02:31:41;11.23;;;9.60;;
10957;SDS011;5531;42.570;23.676;2023-05-07T02:34:12;12.75;;;9.90;;
10957;SDS011;5531;42.570;23.676;2023-05-07T02:36:41;10.60;;;9.13;;
10957;SDS011;5531;42.570;23.676;2023-05-07T02:39:09;12.57;;;9.65;;
10957;SDS011;5531;42.570;23.676;2023-05-07T02:41:38;10.95;;;9.48;;
10957;SDS011;5531;42.570;23.676;2023-05-07T02:44:06;13.30;;;10.15;;
10957;SDS011;5531;42.570;23.676;2023-05-07T02:46:35;13.63;;;9.73;;
10957;SDS011;5531;42.570;23.676;2023-05-07T02:49:03;9.90;;;8.93;;
10957;SDS011;5531;42.570;23.676;2023-05-07T02:51:35;12.27;;;9.45;;
10957;SDS011;5531;42.570;23.676;2023-05-07T02:54:03;14.90;;;10.07;;
10957;SDS011;5531;42.570;23.676;2023-05-07T02:56:32;14.73;;;9.80;;
10957;SDS011;5531;42.570;23.676;2023-05-07T02:59:01;13.13;;;9.48;;
10957;SDS011;5531;42.570;23.676;2023-05-07T03:01:29;12.02;;;9.73;;
10957;SDS011;5531;42.570;23.676;2023-05-07T03:03:58;11.68;;;9.38;;
10957;SDS011;5531;42.570;23.676;2023-05-07T03:06:27;13.32;;;10.38;;
10957;SDS011;5531;42.570;23.676;2023-05-07T03:08:58;14.80;;;9.65;;
10957;SDS011;5531;42.570;23.676;2023-05-07T03:11:26;13.48;;;10.10;;
10957;SDS011;5531;42.570;23.676;2023-05-07T03:13:55;12.80;;;9.65;;
10957;SDS011;5531;42.570;23.676;2023-05-07T03:16:24;11.13;;;9.48;;
10957;SDS011;5531;42.570;23.676;2023-05-07T03:18:52;12.38;;;9.88;;
10957;SDS011;5531;42.570;23.676;2023-05-07T03:21:21;11.05;;;8.93;;
10957;SDS011;5531;42.570;23.676;2023-05-07T03:23:49;12.63;;;9.85;;
10957;SDS011;5531;42.570;23.676;2023-05-07T03:26:21;13.15;;;9.93;;
10957;SDS011;5531;42.570;23.676;2023-05-07T03:28:50;12.05;;;9.93;;
10957;SDS011;5531;42.570;23.676;2023-05-07T03:31:19;12.63;;;9.40;;
10957;SDS011;5531;42.570;23.676;2023-05-07T03:33:50;12.90;;;9.57;;
10957;SDS011;5531;42.570;23.676;2023-05-07T03:36:19;11.63;;;9.60;;
10957;SDS011;5531;42.570;23.676;2023-05-07T03:38:48;14.25;;;10.35;;
10957;SDS011;5531;42.570;23.676;2023-05-07T03:41:16;12.88;;;10.25;;
10957;SDS011;5531;42.570;23.676;2023-05-07T03:43:48;12.15;;;10.05;;
10957;SDS011;5531;42.570;23.676;2023-05-07T03:46:16;13.70;;;10.65;;
10957;SDS011;5531;42.570;23.676;2023-05-07T03:48:45;13.75;;;10.30;;
10957;SDS011;5531;42.570;23.676;2023-05-07T03:51:13;12.48;;;10.10;;
10957;SDS011;5531;42.570;23.676;2023-05-07T03:53:42;13.23;;;10.30;;
10957;SDS011;5531;42.570;23.676;2023-05-07T03:56:10;12.43;;;10.23;;
10957;SDS011;5531;42.570;23.676;2023-05-07T03:58:39;13.85;;;10.90;;
10957;SDS011;5531;42.570;23.676;2023-05-07T04:01:10;10.82;;;9.68;;
10957;SDS011;5531;42.570;23.676;2023-05-07T04:03:39;13.85;;;10.50;;
10957;SDS011;5531;42.570;23.676;2023-05-07T04:06:07;11.70;;;9.45;;
10957;SDS011;5531;42.570;23.676;2023-05-07T04:08:36;10.95;;;9.68;;
10957;SDS011;5531;42.570;23.676;2023-05-07T04:11:05;11.50;;;10.05;;
10957;SDS011;5531;42.570;23.676;2023-05-07T04:13:33;12.23;;;9.70;;
10957;SDS011;5531;42.570;23.676;2023-05-07T04:16:02;12.75;;;9.15;;
10957;SDS011;5531;42.570;23.676;2023-05-07T04:18:33;11.32;;;9.70;;
10957;SDS011;5531;42.570;23.676;2023-05-07T04:21:02;11.23;;;9.20;;
10957;SDS011;5531;42.570;23.676;2023-05-07T04:23:31;10.43;;;8.57;;
10957;SDS011;5531;42.570;23.676;2023-05-07T04:25:59;10.90;;;8.63;;
10957;SDS011;5531;42.570;23.676;2023-05-07T04:28:28;11.07;;;8.75;;
10957;SDS011;5531;42.570;23.676;2023-05-07T04:30:57;12.25;;;9.98;;
10957;SDS011;5531;42.570;23.676;2023-05-07T04:33:25;9.38;;;8.38;;
10957;SDS011;5531;42.570;23.676;2023-05-07T04:35:57;11.73;;;9.32;;
10957;SDS011;5531;42.570;23.676;2023-05-07T04:38:28;10.57;;;8.25;;
10957;SDS011;5531;42.570;23.676;2023-05-07T04:40:56;10.00;;;8.38;;
10957;SDS011;5531;42.570;23.676;2023-05-07T04:43:25;11.07;;;7.80;;
10957;SDS011;5531;42.570;23.676;2023-05-07T04:45:53;10.23;;;8.43;;
10957;SDS011;5531;42.570;23.676;2023-05-07T04:48:22;12.70;;;7.70;;
10957;SDS011;5531;42.570;23.676;2023-05-07T04:50:51;8.75;;;7.20;;
10957;SDS011;5531;42.570;23.676;2023-05-07T04:53:23;8.48;;;7.63;;
10957;SDS011;5531;42.570;23.676;2023-05-07T04:55:54;9.60;;;7.25;;
10957;SDS011;5531;42.570;23.676;2023-05-07T04:58:23;8.20;;;6.80;;
10957;SDS011;5531;42.570;23.676;2023-05-07T05:00:52;8.18;;;6.60;;
10957;SDS011;5531;42.570;23.676;2023-05-07T05:03:21;9.50;;;6.70;;
10957;SDS011;5531;42.570;23.676;2023-05-07T05:05:50;6.65;;;5.97;;
10957;SDS011;5531;42.570;23.676;2023-05-07T05:08:19;7.72;;;6.10;;
10957;SDS011;5531;42.570;23.676;2023-05-07T05:10:50;6.55;;;5.82;;
10957;SDS011;5531;42.570;23.676;2023-05-07T05:13:19;6.93;;;5.75;;
10957;SDS011;5531;42.570;23.676;2023-05-07T05:15:47;7.63;;;5.75;;
10957;SDS011;5531;42.570;23.676;2023-05-07T05:18:16;6.43;;;5.70;;
10957;SDS011;5531;42.570;23.676;2023-05-07T05:20:44;5.72;;;5.22;;
10957;SDS011;5531;42.570;23.676;2023-05-07T05:23:13;5.70;;;4.78;;
10957;SDS011;5531;42.570;23.676;2023-05-07T05:25:42;5.40;;;4.82;;
10957;SDS011;5531;42.570;23.676;2023-05-07T05:28:13;6.50;;;5.03;;
10957;SDS011;5531;42.570;23.676;2023-05-07T05:30:41;5.05;;;4.40;;
10957;SDS011;5531;42.570;23.676;2023-05-07T05:33:10;4.57;;;4.10;;
10957;SDS011;5531;42.570;23.676;2023-05-07T05:35:38;4.95;;;4.47;;
10957;SDS011;5531;42.570;23.676;2023-05-07T05:38:07;6.63;;;4.78;;
10957;SDS011;5531;42.570;23.676;2023-05-07T05:40:35;5.53;;;4.30;;
10957;SDS011;5531;42.570;23.676;2023-05-07T05:43:04;4.30;;;3.90;;
10957;SDS011;5531;42.570;23.676;2023-05-07T05:45:35;4.78;;;4.18;;
10957;SDS011;5531;42.570;23.676;2023-05-07T05:48:04;4.35;;;3.95;;
10957;SDS011;5531;42.570;23.676;2023-05-07T05:50:33;4.80;;;3.97;;
10957;SDS011;5531;42.570;23.676;2023-05-07T05:53:03;4.93;;;4.20;;
10957;SDS011;5531;42.570;23.676;2023-05-07T05:55:31;5.32;;;4.40;;
10957;SDS011;5531;42.570;23.676;2023-05-07T05:58:00;5.40;;;4.47;;
10957;SDS011;5531;42.570;23.676;2023-05-07T06:00:29;5.35;;;4.38;;
10957;SDS011;5531;42.570;23.676;2023-05-07T06:03:00;4.93;;;4.50;;
10957;SDS011;5531;42.570;23.676;2023-05-07T06:05:29;4.93;;;4.43;;
10957;SDS011;5531;42.570;23.676;2023-05-07T06:07:58;5.05;;;4.18;;
10957;SDS011;5531;42.570;23.676;2023-05-07T06:10:26;5.30;;;4.30;;
10957;SDS011;5531;42.570;23.676;2023-05-07T06:12:55;5.82;;;4.90;;
10957;SDS011;5531;42.570;23.676;2023-05-07T06:15:24;6.18;;;5.22;;
10957;SDS011;5531;42.570;23.676;2023-05-07T06:17:53;7.50;;;5.40;;
10957;SDS011;5531;42.570;23.676;2023-05-07T06:20:25;7.45;;;5.80;;
10957;SDS011;5531;42.570;23.676;2023-05-07T06:22:53;8.15;;;6.15;;
10957;SDS011;5531;42.570;23.676;2023-05-07T06:25:22;7.55;;;6.22;;
10957;SDS011;5531;42.570;23.676;2023-05-07T06:27:51;7.68;;;6.20;;
10957;SDS011;5531;42.570;23.676;2023-05-07T06:30:19;8.25;;;6.55;;
10957;SDS011;5531;42.570;23.676;2023-05-07T06:32:48;6.80;;;5.90;;
10957;SDS011;5531;42.570;23.676;2023-05-07T06:35:16;8.75;;;6.95;;
10957;SDS011;5531;42.570;23.676;2023-05-07T06:37:47;9.25;;;7.15;;
10957;SDS011;5531;42.570;23.676;2023-05-07T06:40:16;6.68;;;5.72;;
10957;SDS011;5531;42.570;23.676;2023-05-07T06:42:45;7.88;;;6.30;;
10957;SDS011;5531;42.570;23.676;2023-05-07T06:45:13;8.60;;;6.00;;
10957;SDS011;5531;42.570;23.676;2023-05-07T06:47:42;8.07;;;5.07;;
10957;SDS011;5531;42.570;23.676;2023-05-07T06:50:10;7.22;;;5.93;;
10957;SDS011;5531;42.570;23.676;2023-05-07T06:52:41;6.68;;;5.30;;
10957;SDS011;5531;42.570;23.676;2023-05-07T06:55:12;6.95;;;6.07;;
10957;SDS011;5531;42.570;23.676;2023-05-07T06:57:41;6.68;;;5.35;;
10957;SDS011;5531;42.570;23.676;2023-05-07T07:00:10;6.75;;;5.57;;
10957;SDS011;5531;42.570;23.676;2023-05-07T07:02:38;10.73;;;9.57;;
10957;SDS011;5531;42.570;23.676;2023-05-07T07:05:07;7.13;;;5.95;;
10957;SDS011;5531;42.570;23.676;2023-05-07T07:07:36;6.95;;;5.20;;
10957;SDS011;5531;42.570;23.676;2023-05-07T07:10:05;6.82;;;5.28;;
10957;SDS011;5531;42.570;23.676;2023-05-07T07:12:36;5.93;;;5.32;;
10957;SDS011;5531;42.570;23.676;2023-05-07T07:15:06;5.32;;;4.80;;
10957;SDS011;5531;42.570;23.676;2023-05-07T07:17:35;5.20;;;4.70;;
10957;SDS011;5531;42.570;23.676;2023-05-07T07:20:04;5.07;;;4.50;;
10957;SDS011;5531;42.570;23.676;2023-05-07T07:22:32;5.57;;;4.40;;
10957;SDS011;5531;42.570;23.676;2023-05-07T07:25:01;6.07;;;5.22;;
10957;SDS011;5531;42.570;23.676;2023-05-07T07:27:30;5.22;;;4.60;;
10957;SDS011;5531;42.570;23.676;2023-05-07T07:30:01;6.03;;;4.68;;
10957;SDS011;5531;42.570;23.676;2023-05-07T07:32:29;6.35;;;4.45;;
10957;SDS011;5531;42.570;23.676;2023-05-07T07:34:58;5.22;;;4.60;;
10957;SDS011;5531;42.570;23.676;2023-05-07T07:37:27;5.15;;;4.35;;
10957;SDS011;5531;42.570;23.676;2023-05-07T07:39:56;5.20;;;4.53;;
10957;SDS011;5531;42.570;23.676;2023-05-07T07:42:24;4.75;;;4.07;;
10957;SDS011;5531;42.570;23.676;2023-05-07T07:44:54;5.30;;;4.32;;
10957;SDS011;5531;42.570;23.676;2023-05-07T07:47:25;4.30;;;3.90;;
10957;SDS011;5531;42.570;23.676;2023-05-07T07:49:54;4.82;;;4.32;;
10957;SDS011;5531;42.570;23.676;2023-05-07T07:52:22;4.60;;;4.10;;
10957;SDS011;5531;42.570;23.676;2023-05-07T07:54:51;4.78;;;4.32;;
10957;SDS011;5531;42.570;23.676;2023-05-07T07:57:19;4.93;;;4.43;;
10957;SDS011;5531;42.570;23.676;2023-05-07T07:59:48;4.72;;;4.22;;
10957;SDS011;5531;42.570;23.676;2023-05-07T08:02:17;4.30;;;3.90;;
10957;SDS011;5531;42.570;23.676;2023-05-07T08:04:48;5.05;;;4.25;;
10957;SDS011;5531;42.570;23.676;2023-05-07T08:07:17;4.10;;;3.70;;
10957;SDS011;5531;42.570;23.676;2023-05-07T08:09:48;4.45;;;4.05;;
10957;SDS011;5531;42.570;23.676;2023-05-07T08:12:16;5.15;;;4.28;;
10957;SDS011;5531;42.570;23.676;2023-05-07T08:14:45;4.20;;;3.80;;
10957;SDS011;5531;42.570;23.676;2023-05-07T08:17:13;4.00;;;3.60;;
10957;SDS011;5531;42.570;23.676;2023-05-07T08:19:42;6.63;;;3.85;;
10957;SDS011;5531;42.570;23.676;2023-05-07T08:22:13;4.13;;;3.65;;
10957;SDS011;5531;42.570;23.676;2023-05-07T08:24:43;3.60;;;3.30;;
10957;SDS011;5531;42.570;23.676;2023-05-07T08:27:12;3.83;;;3.42;;
10957;SDS011;5531;42.570;23.676;2023-05-07T08:29:40;3.42;;;3.13;;
10957;SDS011;5531;42.570;23.676;2023-05-07T08:32:12;3.63;;;3.22;;
10957;SDS011;5531;42.570;23.676;2023-05-07T08:34:41;3.38;;;3.08;;
10957;SDS011;5531;42.570;23.676;2023-05-07T08:37:09;4.97;;;3.22;;
10957;SDS011;5531;42.570;23.676;2023-05-07T08:39:41;3.25;;;2.92;;
10957;SDS011;5531;42.570;23.676;2023-05-07T08:42:09;3.17;;;2.75;;
10957;SDS011;5531;42.570;23.676;2023-05-07T08:44:39;6.53;;;3.10;;
10957;SDS011;5531;42.570;23.676;2023-05-07T08:47:09;2.95;;;2.60;;
10957;SDS011;5531;42.570;23.676;2023-05-07T08:49:38;3.08;;;2.78;;
10957;SDS011;5531;42.570;23.676;2023-05-07T08:52:06;2.63;;;2.33;;
10957;SDS011;5531;42.570;23.676;2023-05-07T08:54:36;2.88;;;2.30;;
10957;SDS011;5531;42.570;23.676;2023-05-07T08:57:08;3.13;;;2.28;;
10957;SDS011;5531;42.570;23.676;2023-05-07T08:59:36;3.30;;;2.20;;
10957;SDS011;5531;42.570;23.676;2023-05-07T09:02:05;2.58;;;2.38;;
10957;SDS011;5531;42.570;23.676;2023-05-07T09:04:35;2.38;;;2.17;;
10957;SDS011;5531;42.570;23.676;2023-05-07T09:07:04;2.60;;;2.40;;
10957;SDS011;5531;42.570;23.676;2023-05-07T09:09:33;2.47;;;2.28;;
10957;SDS011;5531;42.570;23.676;2023-05-07T09:12:01;2.50;;;2.30;;
10957;SDS011;5531;42.570;23.676;2023-05-07T09:14:36;2.22;;;2.00;;
10957;SDS011;5531;42.570;23.676;2023-05-07T09:17:04;3.67;;;2.40;;
10957;SDS011;5531;42.570;23.676;2023-05-07T09:19:33;2.30;;;2.10;;
10957;SDS011;5531;42.570;23.676;2023-05-07T09:22:02;3.90;;;2.60;;
10957;SDS011;5531;42.570;23.676;2023-05-07T09:24:32;2.42;;;2.22;;
10957;SDS011;5531;42.570;23.676;2023-05-07T09:27:03;2.58;;;2.30;;
10957;SDS011;5531;42.570;23.676;2023-05-07T09:29:31;2.50;;;2.30;;
10957;SDS011;5531;42.570;23.676;2023-05-07T09:32:04;3.15;;;2.40;;
10957;SDS011;5531;42.570;23.676;2023-05-07T09:34:33;2.30;;;2.10;;
10957;SDS011;5531;42.570;23.676;2023-05-07T09:37:02;4.63;;;2.15;;
10957;SDS011;5531;42.570;23.676;2023-05-07T09:39:40;3.97;;;2.40;;
10957;SDS011;5531;42.570;23.676;2023-05-07T09:42:09;2.33;;;2.13;;
10957;SDS011;5531;42.570;23.676;2023-05-07T09:44:40;2.40;;;2.20;;
10957;SDS011;5531;42.570;23.676;2023-05-07T09:47:11;3.38;;;2.05;;
10957;SDS011;5531;42.570;23.676;2023-05-07T09:49:40;3.45;;;2.40;;
10957;SDS011;5531;42.570;23.676;2023-05-07T09:52:10;2.35;;;2.15;;
10957;SDS011;5531;42.570;23.676;2023-05-07T09:54:41;2.42;;;2.20;;
10957;SDS011;5531;42.570;23.676;2023-05-07T09:57:10;2.67;;;2.35;;
10957;SDS011;5531;42.570;23.676;2023-05-07T09:59:39;2.63;;;2.42;;
10957;SDS011;5531;42.570;23.676;2023-05-07T10:02:13;2.80;;;2.20;;
10957;SDS011;5531;42.570;23.676;2023-05-07T10:04:42;2.33;;;2.13;;
10957;SDS011;5531;42.570;23.676;2023-05-07T10:07:13;2.38;;;2.17;;
10957;SDS011;5531;42.570;23.676;2023-05-07T10:09:42;2.80;;;2.38;;
10957;SDS011;5531;42.570;23.676;2023-05-07T10:12:11;2.38;;;2.10;;
10957;SDS011;5531;42.570;23.676;2023-05-07T10:14:40;2.17;;;1.98;;
10957;SDS011;5531;42.570;23.676;2023-05-07T10:17:08;2.53;;;2.33;;
10957;SDS011;5531;42.570;23.676;2023-05-07T10:19:40;2.28;;;2.08;;
10957;SDS011;5531;42.570;23.676;2023-05-07T10:22:09;2.60;;;2.00;;
10957;SDS011;5531;42.570;23.676;2023-05-07T10:24:38;2.80;;;2.15;;
10957;SDS011;5531;42.570;23.676;2023-05-07T10:27:08;2.40;;;2.20;;
10957;SDS011;5531;42.570;23.676;2023-05-07T10:29:39;3.40;;;2.38;;
10957;SDS011;5531;42.570;23.676;2023-05-07T10:32:17;3.25;;;2.50;;
10957;SDS011;5531;42.570;23.676;2023-05-07T10:34:54;2.63;;;2.42;;
10957;SDS011;5531;42.570;23.676;2023-05-07T10:37:24;2.40;;;2.20;;
10957;SDS011;5531;42.570;23.676;2023-05-07T10:39:53;3.72;;;2.10;;
10957;SDS011;5531;42.570;23.676;2023-05-07T10:42:22;2.50;;;2.30;;
10957;SDS011;5531;42.570;23.676;2023-05-07T10:44:51;2.22;;;2.03;;
10957;SDS011;5531;42.570;23.676;2023-05-07T10:47:20;2.72;;;2.40;;
10957;SDS011;5531;42.570;23.676;2023-05-07T10:52:34;2.92;;;2.30;;
10957;SDS011;5531;42.570;23.676;2023-05-07T10:57:46;4.43;;;2.40;;
10957;SDS011;5531;42.570;23.676;2023-05-07T11:03:04;2.72;;;2.50;;
10957;SDS011;5531;42.570;23.676;2023-05-07T11:05:33;2.50;;;2.30;;
10957;SDS011;5531;42.570;23.676;2023-05-07T11:08:05;2.60;;;2.40;;
10957;SDS011;5531;42.570;23.676;2023-05-07T11:10:49;2.42;;;2.22;;
10957;SDS011;5531;42.570;23.676;2023-05-07T11:13:18;2.70;;;2.38;;
10957;SDS011;5531;42.570;23.676;2023-05-07T11:16:16;2.38;;;2.17;;
10957;SDS011;5531;42.570;23.676;2023-05-07T11:18:47;2.60;;;2.40;;
10957;SDS011;5531;42.570;23.676;2023-05-07T11:21:32;2.88;;;2.22;;
10957;SDS011;5531;42.570;23.676;2023-05-07T11:24:04;3.55;;;2.30;;
10957;SDS011;5531;42.570;23.676;2023-05-07T11:26:43;2.40;;;2.17;;
10957;SDS011;5531;42.570;23.676;2023-05-07T11:29:12;2.78;;;2.20;;
10957;SDS011;5531;42.570;23.676;2023-05-07T11:31:41;3.08;;;2.10;;
10957;SDS011;5531;42.570;23.676;2023-05-07T11:34:10;2.42;;;2.22;;
10957;SDS011;5531;42.570;23.676;2023-05-07T11:36:42;2.50;;;2.08;;
10957;SDS011;5531;42.570;23.676;2023-05-07T11:39:28;2.28;;;2.08;;
10957;SDS011;5531;42.570;23.676;2023-05-07T11:41:58;2.42;;;2.22;;
10957;SDS011;5531;42.570;23.676;2023-05-07T11:44:40;2.28;;;2.08;;
10957;SDS011;5531;42.570;23.676;2023-05-07T11:47:09;2.50;;;2.30;;
10957;SDS011;5531;42.570;23.676;2023-05-07T11:49:38;2.45;;;2.22;;
10957;SDS011;5531;42.570;23.676;2023-05-07T11:52:07;2.55;;;2.35;;
10957;SDS011;5531;42.570;23.676;2023-05-07T11:54:38;2.67;;;2.47;;
10957;SDS011;5531;42.570;23.676;2023-05-07T11:57:06;2.30;;;2.10;;
10957;SDS011;5531;42.570;23.676;2023-05-07T11:59:42;2.60;;;2.10;;
10957;SDS011;5531;42.570;23.676;2023-05-07T12:02:13;2.50;;;2.30;;
10957;SDS011;5531;42.570;23.676;2023-05-07T12:04:42;2.25;;;2.05;;
10957;SDS011;5531;42.570;23.676;2023-05-07T12:07:13;2.20;;;2.00;;
10957;SDS011;5531;42.570;23.676;2023-05-07T12:09:46;2.47;;;2.28;;
10957;SDS011;5531;42.570;23.676;2023-05-07T12:12:15;2.70;;;2.50;;
10957;SDS011;5531;42.570;23.676;2023-05-07T12:14:44;3.13;;;2.42;;
10957;SDS011;5531;42.570;23.676;2023-05-07T12:17:13;2.33;;;2.08;;
10957;SDS011;5531;42.570;23.676;2023-05-07T12:19:42;2.42;;;2.20;;
10957;SDS011;5531;42.570;23.676;2023-05-07T12:22:11;2.47;;;2.28;;
10957;SDS011;5531;42.570;23.676;2023-05-07T12:24:46;3.60;;;2.15;;
10957;SDS011;5531;42.570;23.676;2023-05-07T12:27:15;2.28;;;2.08;;
10957;SDS011;5531;42.570;23.676;2023-05-07T12:29:45;2.40;;;2.20;;
10957;SDS011;5531;42.570;23.676;2023-05-07T12:32:13;3.05;;;2.33;;
10957;SDS011;5531;42.570;23.676;2023-05-07T12:34:42;2.22;;;2.03;;
10957;SDS011;5531;42.570;23.676;2023-05-07T12:37:11;2.70;;;2.25;;
10957;SDS011;5531;42.570;23.676;2023-05-07T12:39:46;2.47;;;2.28;;
10957;SDS011;5531;42.570;23.676;2023-05-07T12:42:15;2.92;;;2.60;;
10957;SDS011;5531;42.570;23.676;2023-05-07T12:44:45;2.72;;;2.45;;
10957;SDS011;5531;42.570;23.676;2023-05-07T12:47:14;3.17;;;2.60;;
10957;SDS011;5531;42.570;23.676;2023-05-07T12:49:43;2.53;;;2.33;;
10957;SDS011;5531;42.570;23.676;2023-05-07T12:52:12;2.40;;;2.20;;
10957;SDS011;5531;42.570;23.676;2023-05-07T12:54:41;2.83;;;2.53;;
10957;SDS011;5531;42.570;23.676;2023-05-07T12:57:12;2.70;;;2.50;;
10957;SDS011;5531;42.570;23.676;2023-05-07T12:59:41;2.50;;;2.30;;
10957;SDS011;5531;42.570;23.676;2023-05-07T13:02:09;2.42;;;2.22;;
10957;SDS011;5531;42.570;23.676;2023-05-07T13:04:38;2.97;;;2.30;;
10957;SDS011;5531;42.570;23.676;2023-05-07T13:07:06;2.70;;;2.22;;
10957;SDS011;5531;42.570;23.676;2023-05-07T13:09:35;2.38;;;2.17;;
10957;SDS011;5531;42.570;23.676;2023-05-07T13:12:04;3.17;;;2.30;;
10957;SDS011;5531;42.570;23.676;2023-05-07T13:14:35;2.40;;;2.20;;
10957;SDS011;5531;42.570;23.676;2023-05-07T13:17:04;2.50;;;2.30;;
10957;SDS011;5531;42.570;23.676;2023-05-07T13:19:32;2.90;;;2.47;;
10957;SDS011;5531;42.570;23.676;2023-05-07T13:22:02;3.67;;;2.20;;
10957;SDS011;5531;42.570;23.676;2023-05-07T13:24:31;2.92;;;2.20;;
10957;SDS011;5531;42.570;23.676;2023-05-07T13:27:00;2.40;;;2.20;;
10957;SDS011;5531;42.570;23.676;2023-05-07T13:29:29;4.68;;;2.55;;
10957;SDS011;5531;42.570;23.676;2023-05-07T13:32:00;5.35;;;2.30;;
10957;SDS011;5531;42.570;23.676;2023-05-07T13:34:29;2.30;;;2.10;;
10957;SDS011;5531;42.570;23.676;2023-05-07T13:36:58;2.30;;;2.10;;
10957;SDS011;5531;42.570;23.676;2023-05-07T13:39:26;2.67;;;2.10;;
10957;SDS011;5531;42.570;23.676;2023-05-07T13:41:55;2.70;;;2.50;;
10957;SDS011;5531;42.570;23.676;2023-05-07T13:44:23;2.28;;;2.08;;
10957;SDS011;5531;42.570;23.676;2023-05-07T13:46:52;2.50;;;2.30;;
10957;SDS011;5531;42.570;23.676;2023-05-07T13:49:23;2.40;;;2.20;;
10957;SDS011;5531;42.570;23.676;2023-05-07T13:51:52;3.47;;;2.38;;
10957;SDS011;5531;42.570;23.676;2023-05-07T13:54:21;2.60;;;2.17;;
10957;SDS011;5531;42.570;23.676;2023-05-07T13:56:49;2.60;;;2.40;;
10957;SDS011;5531;42.570;23.676;2023-05-07T13:59:18;2.30;;;2.10;;
10957;SDS011;5531;42.570;23.676;2023-05-07T14:01:46;2.63;;;2.40;;
10957;SDS011;5531;42.570;23.676;2023-05-07T14:04:15;2.42;;;2.22;;
10957;SDS011;5531;42.570;23.676;2023-05-07T14:06:46;3.95;;;2.30;;
10957;SDS011;5531;42.570;23.676;2023-05-07T14:09:15;2.50;;;2.28;;
10957;SDS011;5531;42.570;23.676;2023-05-07T14:11:43;2.38;;;2.17;;
10957;SDS011;5531;42.570;23.676;2023-05-07T14:14:12;3.03;;;2.25;;
10957;SDS011;5531;42.570;23.676;2023-05-07T14:16:41;2.80;;;2.38;;
10957;SDS011;5531;42.570;23.676;2023-05-07T14:19:10;2.47;;;2.28;;
10957;SDS011;5531;42.570;23.676;2023-05-07T14:21:38;3.35;;;2.40;;
10957;SDS011;5531;42.570;23.676;2023-05-07T14:24:10;2.40;;;2.20;;
10957;SDS011;5531;42.570;23.676;2023-05-07T14:26:38;2.78;;;2.33;;
10957;SDS011;5531;42.570;23.676;2023-05-07T14:29:07;2.92;;;2.33;;
10957;SDS011;5531;42.570;23.676;2023-05-07T14:31:35;2.38;;;2.17;;
10957;SDS011;5531;42.570;23.676;2023-05-07T14:34:05;2.75;;;2.22;;
10957;SDS011;5531;42.570;23.676;2023-05-07T14:36:33;4.32;;;2.20;;
10957;SDS011;5531;42.570;23.676;2023-05-07T14:39:03;2.67;;;2.38;;
10957;SDS011;5531;42.570;23.676;2023-05-07T14:41:34;2.40;;;2.20;;
10957;SDS011;5531;42.570;23.676;2023-05-07T14:44:03;2.58;;;2.38;;
10957;SDS011;5531;42.570;23.676;2023-05-07T14:46:32;2.47;;;2.10;;
10957;SDS011;5531;42.570;23.676;2023-05-07T14:49:01;2.25;;;2.13;;
10957;SDS011;5531;42.570;23.676;2023-05-07T14:51:30;2.38;;;2.17;;
10957;SDS011;5531;42.570;23.676;2023-05-07T14:53:59;2.38;;;2.17;;
10957;SDS011;5531;42.570;23.676;2023-05-07T14:56:28;2.45;;;2.25;;
10957;SDS011;5531;42.570;23.676;2023-05-07T14:58:59;2.60;;;2.30;;
10957;SDS011;5531;42.570;23.676;2023-05-07T15:01:28;2.60;;;2.25;;
10957;SDS011;5531;42.570;23.676;2023-05-07T15:03:57;2.92;;;2.28;;
10957;SDS011;5531;42.570;23.676;2023-05-07T15:06:25;3.25;;;2.03;;